sensor_id;sensor_type;location;lat;lon;timestamp;temperature;humidity
8953;DHT22;4511;50.890;8.054;2024-01-15T00:00:06;0.20;99.90
8953;DHT22;4511;50.890;8.054;2024-01-15T00:02:35;0.20;99.90
8953;DHT22;4511;50.890;8.054;2024-01-15T00:05:02;0.20;99.90
8953;DHT22;4511;50.890;8.054;2024-01-15T00:07:29;0.20;99.90
8953;DHT22;4511;50.890;8.054;2024-01-15T00:09:55;0.20;99.90
8953;DHT22;4511;50.890;8.054;2024-01-15T00:12:22;0.10;99.90
8953;DHT22;4511;50.890;8.054;2024-01-15T00:14:49;0.10;99.90
8953;DHT22;4511;50.890;8.054;2024-01-15T00:17:15;0.00;99.90
8953;DHT22;4511;50.890;8.054;2024-01-15T00:19:43;0.10;99.90
8953;DHT22;4511;50.890;8.054;2024-01-15T00:22:10;0.10;99.90
8953;DHT22;4511;50.890;8.054;2024-01-15T00:24:37;0.10;99.90
8953;DHT22;4511;50.890;8.054;2024-01-15T00:27:04;0.10;99.90
8953;DHT22;4511;50.890;8.054;2024-01-15T00:29:31;0.00;99.90
8953;DHT22;4511;50.890;8.054;2024-01-15T00:31:57;0.10;99.90
8953;DHT22;4511;50.890;8.054;2024-01-15T00:34:24;0.10;99.90
8953;DHT22;4511;50.890;8.054;2024-01-15T00:36:52;0.10;99.90
8953;DHT22;4511;50.890;8.054;2024-01-15T00:39:19;0.10;99.90
8953;DHT22;4511;50.890;8.054;2024-01-15T00:41:46;0.10;99.90
8953;DHT22;4511;50.890;8.054;2024-01-15T00:44:12;0.10;99.90
8953;DHT22;4511;50.890;8.054;2024-01-15T00:46:43;0.10;99.90
8953;DHT22;4511;50.890;8.054;2024-01-15T00:49:11;0.20;99.90
8953;DHT22;4511;50.890;8.054;2024-01-15T00:51:38;0.20;99.90
8953;DHT22;4511;50.890;8.054;2024-01-15T00:54:07;0.10;99.90
8953;DHT22;4511;50.890;8.054;2024-01-15T00:56:33;0.10;99.90
8953;DHT22;4511;50.890;8.054;2024-01-15T00:59:00;0.10;99.90
8953;DHT22;4511;50.890;8.054;2024-01-15T01:01:27;0.20;99.90
8953;DHT22;4511;50.890;8.054;2024-01-15T01:03:54;0.10;99.90
8953;DHT22;4511;50.890;8.054;2024-01-15T01:06:21;0.10;99.90
8953;DHT22;4511;50.890;8.054;2024-01-15T01:08:47;0.20;99.90
8953;DHT22;4511;50.890;8.054;2024-01-15T01:11:16;0.30;99.90
8953;DHT22;4511;50.890;8.054;2024-01-15T01:13:42;0.30;99.90
8953;DHT22;4511;50.890;8.054;2024-01-15T01:16:09;0.40;99.90
8953;DHT22;4511;50.890;8.054;2024-01-15T01:18:36;0.30;99.90
8953;DHT22;4511;50.890;8.054;2024-01-15T01:21:03;0.30;99.90
8953;DHT22;4511;50.890;8.054;2024-01-15T01:23:30;0.30;99.90
8953;DHT22;4511;50.890;8.054;2024-01-15T01:25:56;0.30;99.90
8953;DHT22;4511;50.890;8.054;2024-01-15T01:28:25;0.30;99.90
8953;DHT22;4511;50.890;8.054;2024-01-15T01:30:51;0.30;99.90
8953;DHT22;4511;50.890;8.054;2024-01-15T01:33:18;0.40;99.90
8953;DHT22;4511;50.890;8.054;2024-01-15T01:35:45;0.30;99.90
8953;DHT22;4511;50.890;8.054;2024-01-15T01:38:12;0.30;99.90
8953;DHT22;4511;50.890;8.054;2024-01-15T01:40:39;0.30;99.90
8953;DHT22;4511;50.890;8.054;2024-01-15T01:43:05;0.30;99.90
8953;DHT22;4511;50.890;8.054;2024-01-15T01:45:34;0.30;99.90
8953;DHT22;4511;50.890;8.054;2024-01-15T01:48:04;0.30;99.90
8953;DHT22;4511;50.890;8.054;2024-01-15T01:50:31;0.40;99.90
8953;DHT22;4511;50.890;8.054;2024-01-15T01:52:58;0.40;99.90
8953;DHT22;4511;50.890;8.054;2024-01-15T01:55:27;0.50;99.90
8953;DHT22;4511;50.890;8.054;2024-01-15T01:57:54;0.40;99.90
8953;DHT22;4511;50.890;8.054;2024-01-15T02:00:22;0.40;99.90
8953;DHT22;4511;50.890;8.054;2024-01-15T02:02:50;0.50;99.90
8953;DHT22;4511;50.890;8.054;2024-01-15T02:05:18;0.40;99.90
8953;DHT22;4511;50.890;8.054;2024-01-15T02:07:45;0.40;99.90
8953;DHT22;4511;50.890;8.054;2024-01-15T02:10:13;0.50;99.90
8953;DHT22;4511;50.890;8.054;2024-01-15T02:12:39;0.40;99.90
8953;DHT22;4511;50.890;8.054;2024-01-15T02:15:06;0.30;99.90
8953;DHT22;4511;50.890;8.054;2024-01-15T02:17:33;0.30;99.90
8953;DHT22;4511;50.890;8.054;2024-01-15T02:20:02;0.30;99.90
8953;DHT22;4511;50.890;8.054;2024-01-15T02:22:30;0.40;99.90
8953;DHT22;4511;50.890;8.054;2024-01-15T02:24:58;0.30;99.90
8953;DHT22;4511;50.890;8.054;2024-01-15T02:27:25;0.40;99.90
8953;DHT22;4511;50.890;8.054;2024-01-15T02:29:52;0.40;99.90
8953;DHT22;4511;50.890;8.054;2024-01-15T02:32:19;0.40;99.90
8953;DHT22;4511;50.890;8.054;2024-01-15T02:34:45;0.50;99.90
8953;DHT22;4511;50.890;8.054;2024-01-15T02:37:12;0.40;99.90
8953;DHT22;4511;50.890;8.054;2024-01-15T02:39:39;0.50;99.90
8953;DHT22;4511;50.890;8.054;2024-01-15T02:42:07;0.50;99.90
8953;DHT22;4511;50.890;8.054;2024-01-15T02:44:34;0.50;99.90
8953;DHT22;4511;50.890;8.054;2024-01-15T02:47:00;0.50;99.90
8953;DHT22;4511;50.890;8.054;2024-01-15T02:49:27;0.50;99.90
8953;DHT22;4511;50.890;8.054;2024-01-15T02:51:54;0.50;99.90
8953;DHT22;4511;50.890;8.054;2024-01-15T02:54:21;0.50;99.90
8953;DHT22;4511;50.890;8.054;2024-01-15T02:56:47;0.50;99.90
8953;DHT22;4511;50.890;8.054;2024-01-15T02:59:15;0.50;99.90
8953;DHT22;4511;50.890;8.054;2024-01-15T03:01:42;0.50;99.90
8953;DHT22;4511;50.890;8.054;2024-01-15T03:04:09;0.50;99.90
8953;DHT22;4511;50.890;8.054;2024-01-15T03:06:36;0.50;99.90
8953;DHT22;4511;50.890;8.054;2024-01-15T03:09:02;0.50;99.90
8953;DHT22;4511;50.890;8.054;2024-01-15T03:11:29;0.50;99.90
8953;DHT22;4511;50.890;8.054;2024-01-15T03:13:56;0.60;99.90
8953;DHT22;4511;50.890;8.054;2024-01-15T03:16:24;0.50;99.90
8953;DHT22;4511;50.890;8.054;2024-01-15T03:18:50;0.50;99.90
8953;DHT22;4511;50.890;8.054;2024-01-15T03:21:17;0.50;99.90
8953;DHT22;4511;50.890;8.054;2024-01-15T03:23:44;0.60;99.90
8953;DHT22;4511;50.890;8.054;2024-01-15T03:26:11;0.50;99.90
8953;DHT22;4511;50.890;8.054;2024-01-15T03:28:37;0.30;99.90
8953;DHT22;4511;50.890;8.054;2024-01-15T03:31:04;0.40;99.90
8953;DHT22;4511;50.890;8.054;2024-01-15T03:33:32;0.40;99.90
8953;DHT22;4511;50.890;8.054;2024-01-15T03:35:59;0.50;99.90
8953;DHT22;4511;50.890;8.054;2024-01-15T03:38:28;0.50;99.90
8953;DHT22;4511;50.890;8.054;2024-01-15T03:40:55;0.50;99.90
8953;DHT22;4511;50.890;8.054;2024-01-15T03:43:22;0.50;99.90
8953;DHT22;4511;50.890;8.054;2024-01-15T03:45:48;0.60;99.90
8953;DHT22;4511;50.890;8.054;2024-01-15T03:48:15;0.60;99.90
8953;DHT22;4511;50.890;8.054;2024-01-15T03:50:43;0.60;99.90
8953;DHT22;4511;50.890;8.054;2024-01-15T03:53:10;0.50;99.90
8953;DHT22;4511;50.890;8.054;2024-01-15T03:55:36;0.50;99.90
8953;DHT22;4511;50.890;8.054;2024-01-15T03:58:03;0.40;99.90
8953;DHT22;4511;50.890;8.054;2024-01-15T04:00:30;0.40;99.90
8953;DHT22;4511;50.890;8.054;2024-01-15T04:02:57;0.30;99.90
8953;DHT22;4511;50.890;8.054;2024-01-15T04:05:23;0.30;99.90
8953;DHT22;4511;50.890;8.054;2024-01-15T04:07:51;0.40;99.90
8953;DHT22;4511;50.890;8.054;2024-01-15T04:10:18;0.50;99.90
8953;DHT22;4511;50.890;8.054;2024-01-15T04:12:45;0.50;99.90
8953;DHT22;4511;50.890;8.054;2024-01-15T04:15:12;0.50;99.90
8953;DHT22;4511;50.890;8.054;2024-01-15T04:17:39;0.60;99.90
8953;DHT22;4511;50.890;8.054;2024-01-15T04:20:07;0.60;99.90
8953;DHT22;4511;50.890;8.054;2024-01-15T04:22:34;0.60;99.90
8953;DHT22;4511;50.890;8.054;2024-01-15T04:25:03;0.70;99.90
8953;DHT22;4511;50.890;8.054;2024-01-15T04:27:30;0.70;99.90
8953;DHT22;4511;50.890;8.054;2024-01-15T04:29:57;0.70;99.90
8953;DHT22;4511;50.890;8.054;2024-01-15T04:32:24;0.70;99.90
8953;DHT22;4511;50.890;8.054;2024-01-15T04:34:50;0.60;99.90
8953;DHT22;4511;50.890;8.054;2024-01-15T04:37:17;0.70;99.90
8953;DHT22;4511;50.890;8.054;2024-01-15T04:39:44;0.80;99.90
8953;DHT22;4511;50.890;8.054;2024-01-15T04:42:12;0.80;99.90
8953;DHT22;4511;50.890;8.054;2024-01-15T04:44:39;0.80;99.90
8953;DHT22;4511;50.890;8.054;2024-01-15T04:47:06;0.70;99.90
8953;DHT22;4511;50.890;8.054;2024-01-15T04:49:33;0.70;99.90
8953;DHT22;4511;50.890;8.054;2024-01-15T04:51:59;0.70;99.90
8953;DHT22;4511;50.890;8.054;2024-01-15T04:54:26;0.70;99.90
8953;DHT22;4511;50.890;8.054;2024-01-15T04:56:53;0.70;99.90
8953;DHT22;4511;50.890;8.054;2024-01-15T04:59:21;0.70;99.90
8953;DHT22;4511;50.890;8.054;2024-01-15T05:01:47;0.80;99.90
8953;DHT22;4511;50.890;8.054;2024-01-15T05:04:14;0.80;99.90
8953;DHT22;4511;50.890;8.054;2024-01-15T05:06:41;0.90;99.90
8953;DHT22;4511;50.890;8.054;2024-01-15T05:09:08;0.80;99.90
8953;DHT22;4511;50.890;8.054;2024-01-15T05:11:35;0.80;99.90
8953;DHT22;4511;50.890;8.054;2024-01-15T05:14:01;0.80;99.90
8953;DHT22;4511;50.890;8.054;2024-01-15T05:16:30;0.80;99.90
8953;DHT22;4511;50.890;8.054;2024-01-15T05:18:56;0.80;99.90
8953;DHT22;4511;50.890;8.054;2024-01-15T05:21:23;0.80;99.90
8953;DHT22;4511;50.890;8.054;2024-01-15T05:23:50;0.80;99.90
8953;DHT22;4511;50.890;8.054;2024-01-15T05:26:16;0.70;99.90
8953;DHT22;4511;50.890;8.054;2024-01-15T05:28:43;0.70;99.90
8953;DHT22;4511;50.890;8.054;2024-01-15T05:31:10;0.70;99.90
8953;DHT22;4511;50.890;8.054;2024-01-15T05:33:38;0.60;99.90
8953;DHT22;4511;50.890;8.054;2024-01-15T05:36:06;0.60;99.90
8953;DHT22;4511;50.890;8.054;2024-01-15T05:38:33;0.70;99.90
8953;DHT22;4511;50.890;8.054;2024-01-15T05:40:59;0.60;99.90
8953;DHT22;4511;50.890;8.054;2024-01-15T05:43:26;0.70;99.90
8953;DHT22;4511;50.890;8.054;2024-01-15T05:45:53;0.70;99.90
8953;DHT22;4511;50.890;8.054;2024-01-15T05:48:19;0.80;99.90
8953;DHT22;4511;50.890;8.054;2024-01-15T05:50:47;0.80;99.90
8953;DHT22;4511;50.890;8.054;2024-01-15T05:53:14;0.80;99.90
8953;DHT22;4511;50.890;8.054;2024-01-15T05:55:41;0.70;99.90
8953;DHT22;4511;50.890;8.054;2024-01-15T05:58:08;0.80;99.90
8953;DHT22;4511;50.890;8.054;2024-01-15T06:00:34;0.70;99.90
8953;DHT22;4511;50.890;8.054;2024-01-15T06:03:03;0.70;99.90
8953;DHT22;4511;50.890;8.054;2024-01-15T06:05:30;1.10;99.90
8953;DHT22;4511;50.890;8.054;2024-01-15T06:07:59;1.20;99.90
8953;DHT22;4511;50.890;8.054;2024-01-15T06:10:25;1.00;99.90
8953;DHT22;4511;50.890;8.054;2024-01-15T06:12:52;0.80;99.90
8953;DHT22;4511;50.890;8.054;2024-01-15T06:15:19;0.60;99.90
8953;DHT22;4511;50.890;8.054;2024-01-15T06:17:45;0.60;99.90
8953;DHT22;4511;50.890;8.054;2024-01-15T06:20:13;0.70;99.90
8953;DHT22;4511;50.890;8.054;2024-01-15T06:22:39;0.60;99.90
8953;DHT22;4511;50.890;8.054;2024-01-15T06:25:08;0.70;99.90
8953;DHT22;4511;50.890;8.054;2024-01-15T06:27:35;0.60;99.90
8953;DHT22;4511;50.890;8.054;2024-01-15T06:30:01;0.60;99.90
8953;DHT22;4511;50.890;8.054;2024-01-15T06:32:28;0.70;99.90
8953;DHT22;4511;50.890;8.054;2024-01-15T06:34:55;0.60;99.90
8953;DHT22;4511;50.890;8.054;2024-01-15T06:37:22;0.60;99.90
8953;DHT22;4511;50.890;8.054;2024-01-15T06:39:49;0.50;99.90
8953;DHT22;4511;50.890;8.054;2024-01-15T06:42:17;0.60;99.90
8953;DHT22;4511;50.890;8.054;2024-01-15T06:44:43;0.60;99.90
8953;DHT22;4511;50.890;8.054;2024-01-15T06:47:10;0.60;99.90
8953;DHT22;4511;50.890;8.054;2024-01-15T06:49:37;0.60;99.90
8953;DHT22;4511;50.890;8.054;2024-01-15T06:52:04;0.50;99.90
8953;DHT22;4511;50.890;8.054;2024-01-15T06:54:31;0.60;99.90
8953;DHT22;4511;50.890;8.054;2024-01-15T06:56:58;0.60;99.90
8953;DHT22;4511;50.890;8.054;2024-01-15T06:59:26;0.80;99.90
8953;DHT22;4511;50.890;8.054;2024-01-15T07:01:53;0.90;99.90
8953;DHT22;4511;50.890;8.054;2024-01-15T07:04:20;0.80;99.90
8953;DHT22;4511;50.890;8.054;2024-01-15T07:06:47;0.80;99.90
8953;DHT22;4511;50.890;8.054;2024-01-15T07:09:13;0.80;99.90
8953;DHT22;4511;50.890;8.054;2024-01-15T07:11:44;0.70;99.90
8953;DHT22;4511;50.890;8.054;2024-01-15T07:14:11;0.70;99.90
8953;DHT22;4511;50.890;8.054;2024-01-15T07:16:39;0.70;99.90
8953;DHT22;4511;50.890;8.054;2024-01-15T07:19:06;0.70;99.90
8953;DHT22;4511;50.890;8.054;2024-01-15T07:21:32;0.70;99.90
8953;DHT22;4511;50.890;8.054;2024-01-15T07:23:59;0.70;99.90
8953;DHT22;4511;50.890;8.054;2024-01-15T07:26:26;0.50;99.90
8953;DHT22;4511;50.890;8.054;2024-01-15T07:28:53;0.50;99.90
8953;DHT22;4511;50.890;8.054;2024-01-15T07:31:20;0.60;99.90
8953;DHT22;4511;50.890;8.054;2024-01-15T07:33:48;0.70;99.90
8953;DHT22;4511;50.890;8.054;2024-01-15T07:36:15;0.70;99.90
8953;DHT22;4511;50.890;8.054;2024-01-15T07:38:42;0.80;99.90
8953;DHT22;4511;50.890;8.054;2024-01-15T07:41:08;0.80;99.90
8953;DHT22;4511;50.890;8.054;2024-01-15T07:43:35;0.60;99.90
8953;DHT22;4511;50.890;8.054;2024-01-15T07:46:02;0.70;99.90
8953;DHT22;4511;50.890;8.054;2024-01-15T07:48:29;0.60;99.90
8953;DHT22;4511;50.890;8.054;2024-01-15T07:50:57;0.60;99.90
8953;DHT22;4511;50.890;8.054;2024-01-15T07:53:23;0.70;99.90
8953;DHT22;4511;50.890;8.054;2024-01-15T07:55:50;0.70;99.90
8953;DHT22;4511;50.890;8.054;2024-01-15T07:58:17;0.70;99.90
8953;DHT22;4511;50.890;8.054;2024-01-15T08:00:44;0.70;99.90
8953;DHT22;4511;50.890;8.054;2024-01-15T08:03:11;0.70;99.90
8953;DHT22;4511;50.890;8.054;2024-01-15T08:05:38;0.80;99.90
8953;DHT22;4511;50.890;8.054;2024-01-15T08:08:06;0.80;99.90
8953;DHT22;4511;50.890;8.054;2024-01-15T08:10:33;0.80;99.90
8953;DHT22;4511;50.890;8.054;2024-01-15T08:12:59;0.80;99.90
8953;DHT22;4511;50.890;8.054;2024-01-15T08:15:26;0.70;99.90
8953;DHT22;4511;50.890;8.054;2024-01-15T08:17:53;0.70;99.90
8953;DHT22;4511;50.890;8.054;2024-01-15T08:20:20;0.80;99.90
8953;DHT22;4511;50.890;8.054;2024-01-15T08:22:47;0.90;99.90
8953;DHT22;4511;50.890;8.054;2024-01-15T08:25:15;0.90;99.90
8953;DHT22;4511;50.890;8.054;2024-01-15T08:27:42;0.90;99.90
8953;DHT22;4511;50.890;8.054;2024-01-15T08:30:10;1.00;99.90
8953;DHT22;4511;50.890;8.054;2024-01-15T08:32:37;1.00;99.90
8953;DHT22;4511;50.890;8.054;2024-01-15T08:35:08;1.00;99.90
8953;DHT22;4511;50.890;8.054;2024-01-15T08:37:34;1.00;99.90
8953;DHT22;4511;50.890;8.054;2024-01-15T08:40:01;0.90;99.90
8953;DHT22;4511;50.890;8.054;2024-01-15T08:42:30;0.90;99.90
8953;DHT22;4511;50.890;8.054;2024-01-15T08:44:56;0.90;99.90
8953;DHT22;4511;50.890;8.054;2024-01-15T08:47:23;1.00;99.90
8953;DHT22;4511;50.890;8.054;2024-01-15T08:49:51;1.00;99.90
8953;DHT22;4511;50.890;8.054;2024-01-15T08:52:17;1.00;99.90
8953;DHT22;4511;50.890;8.054;2024-01-15T08:54:45;1.20;99.90
8953;DHT22;4511;50.890;8.054;2024-01-15T08:57:12;1.10;99.90
8953;DHT22;4511;50.890;8.054;2024-01-15T08:59:40;1.10;99.90
8953;DHT22;4511;50.890;8.054;2024-01-15T09:02:07;1.00;99.90
8953;DHT22;4511;50.890;8.054;2024-01-15T09:04:34;1.00;99.90
8953;DHT22;4511;50.890;8.054;2024-01-15T09:07:01;1.00;99.90
8953;DHT22;4511;50.890;8.054;2024-01-15T09:09:27;0.90;99.90
8953;DHT22;4511;50.890;8.054;2024-01-15T09:11:54;0.80;99.90
8953;DHT22;4511;50.890;8.054;2024-01-15T09:14:21;0.80;99.90
8953;DHT22;4511;50.890;8.054;2024-01-15T09:16:51;0.70;99.90
8953;DHT22;4511;50.890;8.054;2024-01-15T09:19:17;0.90;99.90
8953;DHT22;4511;50.890;8.054;2024-01-15T09:21:44;0.90;99.90
8953;DHT22;4511;50.890;8.054;2024-01-15T09:24:11;0.90;99.90
8953;DHT22;4511;50.890;8.054;2024-01-15T09:26:37;1.10;99.90
8953;DHT22;4511;50.890;8.054;2024-01-15T09:29:04;1.10;99.90
8953;DHT22;4511;50.890;8.054;2024-01-15T09:31:31;1.20;99.90
8953;DHT22;4511;50.890;8.054;2024-01-15T09:33:59;1.20;99.90
8953;DHT22;4511;50.890;8.054;2024-01-15T09:36:27;1.20;99.90
8953;DHT22;4511;50.890;8.054;2024-01-15T09:38:54;1.30;99.90
8953;DHT22;4511;50.890;8.054;2024-01-15T09:41:21;1.10;99.90
8953;DHT22;4511;50.890;8.054;2024-01-15T09:43:48;1.20;99.90
8953;DHT22;4511;50.890;8.054;2024-01-15T09:46:15;1.20;99.90
8953;DHT22;4511;50.890;8.054;2024-01-15T09:48:43;1.10;99.90
8953;DHT22;4511;50.890;8.054;2024-01-15T09:51:11;1.10;99.90
8953;DHT22;4511;50.890;8.054;2024-01-15T09:53:39;1.10;99.90
8953;DHT22;4511;50.890;8.054;2024-01-15T09:56:07;1.10;99.90
8953;DHT22;4511;50.890;8.054;2024-01-15T09:58:35;1.10;99.90
8953;DHT22;4511;50.890;8.054;2024-01-15T10:01:03;1.10;99.90
8953;DHT22;4511;50.890;8.054;2024-01-15T10:03:29;1.20;99.90
8953;DHT22;4511;50.890;8.054;2024-01-15T10:05:58;1.00;99.90
8953;DHT22;4511;50.890;8.054;2024-01-15T10:08:26;0.90;99.90
8953;DHT22;4511;50.890;8.054;2024-01-15T10:10:53;1.00;99.90
8953;DHT22;4511;50.890;8.054;2024-01-15T10:13:21;1.00;99.90
8953;DHT22;4511;50.890;8.054;2024-01-15T10:15:47;1.10;99.90
8953;DHT22;4511;50.890;8.054;2024-01-15T10:18:14;1.30;99.90
8953;DHT22;4511;50.890;8.054;2024-01-15T10:20:41;1.30;99.90
8953;DHT22;4511;50.890;8.054;2024-01-15T10:23:08;1.20;99.90
8953;DHT22;4511;50.890;8.054;2024-01-15T10:25:36;1.10;99.90
8953;DHT22;4511;50.890;8.054;2024-01-15T10:28:04;1.00;99.90
8953;DHT22;4511;50.890;8.054;2024-01-15T10:30:32;1.10;99.90
8953;DHT22;4511;50.890;8.054;2024-01-15T10:32:59;1.20;99.90
8953;DHT22;4511;50.890;8.054;2024-01-15T10:35:28;1.30;99.90
8953;DHT22;4511;50.890;8.054;2024-01-15T10:37:55;1.30;99.90
8953;DHT22;4511;50.890;8.054;2024-01-15T10:40:22;1.30;99.90
8953;DHT22;4511;50.890;8.054;2024-01-15T10:42:50;1.20;99.90
8953;DHT22;4511;50.890;8.054;2024-01-15T10:45:17;1.10;99.90
8953;DHT22;4511;50.890;8.054;2024-01-15T10:47:44;1.10;99.90
8953;DHT22;4511;50.890;8.054;2024-01-15T10:50:11;0.90;99.90
8953;DHT22;4511;50.890;8.054;2024-01-15T10:52:39;0.90;99.90
8953;DHT22;4511;50.890;8.054;2024-01-15T10:55:08;1.00;99.90
8953;DHT22;4511;50.890;8.054;2024-01-15T10:57:35;1.10;99.90
8953;DHT22;4511;50.890;8.054;2024-01-15T11:00:05;1.10;99.90
8953;DHT22;4511;50.890;8.054;2024-01-15T11:02:33;1.10;99.90
8953;DHT22;4511;50.890;8.054;2024-01-15T11:05:01;1.20;99.90
8953;DHT22;4511;50.890;8.054;2024-01-15T11:07:28;1.20;99.90
8953;DHT22;4511;50.890;8.054;2024-01-15T11:09:56;1.10;99.90
8953;DHT22;4511;50.890;8.054;2024-01-15T11:12:24;1.20;99.90
8953;DHT22;4511;50.890;8.054;2024-01-15T11:14:51;1.20;99.90
8953;DHT22;4511;50.890;8.054;2024-01-15T11:17:21;1.30;99.90
8953;DHT22;4511;50.890;8.054;2024-01-15T11:19:49;1.50;99.90
8953;DHT22;4511;50.890;8.054;2024-01-15T11:22:47;1.40;99.90
8953;DHT22;4511;50.890;8.054;2024-01-15T11:25:15;1.40;99.90
8953;DHT22;4511;50.890;8.054;2024-01-15T11:27:43;1.50;99.90
8953;DHT22;4511;50.890;8.054;2024-01-15T11:30:10;1.40;99.90
8953;DHT22;4511;50.890;8.054;2024-01-15T11:32:39;1.60;99.90
8953;DHT22;4511;50.890;8.054;2024-01-15T11:35:08;1.50;99.90
8953;DHT22;4511;50.890;8.054;2024-01-15T11:37:56;1.70;99.90
8953;DHT22;4511;50.890;8.054;2024-01-15T11:40:36;1.70;99.90
8953;DHT22;4511;50.890;8.054;2024-01-15T11:43:03;1.80;99.90
8953;DHT22;4511;50.890;8.054;2024-01-15T11:45:31;2.00;99.90
8953;DHT22;4511;50.890;8.054;2024-01-15T11:48:15;1.80;99.90
8953;DHT22;4511;50.890;8.054;2024-01-15T11:50:44;1.80;99.90
8953;DHT22;4511;50.890;8.054;2024-01-15T11:53:17;1.80;99.90
8953;DHT22;4511;50.890;8.054;2024-01-15T11:55:45;1.90;99.90
8953;DHT22;4511;50.890;8.054;2024-01-15T11:58:14;1.70;99.90
8953;DHT22;4511;50.890;8.054;2024-01-15T12:00:43;1.90;99.90
8953;DHT22;4511;50.890;8.054;2024-01-15T12:03:09;1.90;99.90
8953;DHT22;4511;50.890;8.054;2024-01-15T12:05:39;1.90;99.90
8953;DHT22;4511;50.890;8.054;2024-01-15T12:08:07;1.90;99.90
8953;DHT22;4511;50.890;8.054;2024-01-15T12:10:36;2.00;99.90
8953;DHT22;4511;50.890;8.054;2024-01-15T12:13:05;2.20;99.90
8953;DHT22;4511;50.890;8.054;2024-01-15T12:15:36;2.00;1.00
8953;DHT22;4511;50.890;8.054;2024-01-15T12:18:03;1.90;99.90
8953;DHT22;4511;50.890;8.054;2024-01-15T12:20:31;1.90;99.90
8953;DHT22;4511;50.890;8.054;2024-01-15T12:23:00;2.00;1.00
8953;DHT22;4511;50.890;8.054;2024-01-15T12:25:29;2.00;1.00
8953;DHT22;4511;50.890;8.054;2024-01-15T12:27:56;2.20;1.00
8953;DHT22;4511;50.890;8.054;2024-01-15T12:30:23;2.40;99.90
8953;DHT22;4511;50.890;8.054;2024-01-15T12:32:50;2.30;99.90
8953;DHT22;4511;50.890;8.054;2024-01-15T12:35:17;2.30;1.00
8953;DHT22;4511;50.890;8.054;2024-01-15T12:37:44;2.30;1.00
8953;DHT22;4511;50.890;8.054;2024-01-15T12:40:13;2.20;63.10
8953;DHT22;4511;50.890;8.054;2024-01-15T12:42:40;2.00;1.00
8953;DHT22;4511;50.890;8.054;2024-01-15T12:45:08;1.90;1.00
8953;DHT22;4511;50.890;8.054;2024-01-15T12:47:36;1.90;1.00
8953;DHT22;4511;50.890;8.054;2024-01-15T12:50:06;1.90;99.90
8953;DHT22;4511;50.890;8.054;2024-01-15T12:52:33;1.80;1.00
8953;DHT22;4511;50.890;8.054;2024-01-15T12:54:59;1.70;99.90
8953;DHT22;4511;50.890;8.054;2024-01-15T12:57:28;1.40;99.90
8953;DHT22;4511;50.890;8.054;2024-01-15T12:59:55;1.30;99.90
8953;DHT22;4511;50.890;8.054;2024-01-15T13:02:22;1.20;99.90
8953;DHT22;4511;50.890;8.054;2024-01-15T13:04:49;1.40;99.90
8953;DHT22;4511;50.890;8.054;2024-01-15T13:07:16;1.30;99.90
8953;DHT22;4511;50.890;8.054;2024-01-15T13:09:43;1.40;99.90
8953;DHT22;4511;50.890;8.054;2024-01-15T13:12:09;1.40;99.90
8953;DHT22;4511;50.890;8.054;2024-01-15T13:14:38;1.50;99.90
8953;DHT22;4511;50.890;8.054;2024-01-15T13:17:06;1.50;99.90
8953;DHT22;4511;50.890;8.054;2024-01-15T13:19:33;1.40;1.00
8953;DHT22;4511;50.890;8.054;2024-01-15T13:21:59;1.40;1.00
8953;DHT22;4511;50.890;8.054;2024-01-15T13:24:26;1.50;1.00
8953;DHT22;4511;50.890;8.054;2024-01-15T13:26:53;1.50;1.00
8953;DHT22;4511;50.890;8.054;2024-01-15T13:29:20;1.50;99.90
8953;DHT22;4511;50.890;8.054;2024-01-15T13:31:48;1.60;1.00
8953;DHT22;4511;50.890;8.054;2024-01-15T13:34:15;1.60;1.00
8953;DHT22;4511;50.890;8.054;2024-01-15T13:36:41;1.60;1.00
8953;DHT22;4511;50.890;8.054;2024-01-15T13:39:08;1.60;1.00
8953;DHT22;4511;50.890;8.054;2024-01-15T13:41:35;1.70;1.00
8953;DHT22;4511;50.890;8.054;2024-01-15T13:44:02;1.50;1.00
8953;DHT22;4511;50.890;8.054;2024-01-15T13:46:29;1.50;1.00
8953;DHT22;4511;50.890;8.054;2024-01-15T13:48:57;1.50;1.00
8953;DHT22;4511;50.890;8.054;2024-01-15T13:51:24;1.60;13.00
8953;DHT22;4511;50.890;8.054;2024-01-15T13:53:51;1.60;1.00
8953;DHT22;4511;50.890;8.054;2024-01-15T13:56:18;1.40;1.00
8953;DHT22;4511;50.890;8.054;2024-01-15T13:58:46;1.30;96.10
8953;DHT22;4511;50.890;8.054;2024-01-15T14:01:13;1.30;99.90
8953;DHT22;4511;50.890;8.054;2024-01-15T14:03:40;1.30;99.90
8953;DHT22;4511;50.890;8.054;2024-01-15T14:06:08;1.30;99.90
8953;DHT22;4511;50.890;8.054;2024-01-15T14:08:36;1.30;99.90
8953;DHT22;4511;50.890;8.054;2024-01-15T14:11:03;1.30;99.90
8953;DHT22;4511;50.890;8.054;2024-01-15T14:13:31;1.40;99.90
8953;DHT22;4511;50.890;8.054;2024-01-15T14:15:58;1.40;99.90
8953;DHT22;4511;50.890;8.054;2024-01-15T14:18:25;1.60;99.90
8953;DHT22;4511;50.890;8.054;2024-01-15T14:20:52;1.40;1.00
8953;DHT22;4511;50.890;8.054;2024-01-15T14:23:21;1.50;99.90
8953;DHT22;4511;50.890;8.054;2024-01-15T14:25:47;1.30;99.90
8953;DHT22;4511;50.890;8.054;2024-01-15T14:28:14;1.50;1.00
8953;DHT22;4511;50.890;8.054;2024-01-15T14:30:41;1.40;1.00
8953;DHT22;4511;50.890;8.054;2024-01-15T14:33:07;1.40;99.90
8953;DHT22;4511;50.890;8.054;2024-01-15T14:35:35;1.40;1.00
8953;DHT22;4511;50.890;8.054;2024-01-15T14:38:01;1.50;1.00
8953;DHT22;4511;50.890;8.054;2024-01-15T14:40:29;1.50;1.00
8953;DHT22;4511;50.890;8.054;2024-01-15T14:42:56;1.50;1.00
8953;DHT22;4511;50.890;8.054;2024-01-15T14:45:23;1.50;93.40
8953;DHT22;4511;50.890;8.054;2024-01-15T14:47:49;1.40;1.00
8953;DHT22;4511;50.890;8.054;2024-01-15T14:50:16;1.50;1.00
8953;DHT22;4511;50.890;8.054;2024-01-15T14:52:43;1.40;1.00
8953;DHT22;4511;50.890;8.054;2024-01-15T14:55:11;1.80;1.00
8953;DHT22;4511;50.890;8.054;2024-01-15T14:57:39;1.50;99.90
8953;DHT22;4511;50.890;8.054;2024-01-15T15:00:07;1.60;1.00
8953;DHT22;4511;50.890;8.054;2024-01-15T15:02:35;1.50;99.90
8953;DHT22;4511;50.890;8.054;2024-01-15T15:05:03;1.40;99.90
8953;DHT22;4511;50.890;8.054;2024-01-15T15:07:30;1.20;1.00
8953;DHT22;4511;50.890;8.054;2024-01-15T15:09:57;1.30;1.00
8953;DHT22;4511;50.890;8.054;2024-01-15T15:12:24;1.30;99.90
8953;DHT22;4511;50.890;8.054;2024-01-15T15:14:54;1.30;1.00
8953;DHT22;4511;50.890;8.054;2024-01-15T15:17:21;1.30;1.00
8953;DHT22;4511;50.890;8.054;2024-01-15T15:19:47;1.60;99.90
8953;DHT22;4511;50.890;8.054;2024-01-15T15:22:14;1.60;1.00
8953;DHT22;4511;50.890;8.054;2024-01-15T15:24:41;1.40;1.00
8953;DHT22;4511;50.890;8.054;2024-01-15T15:27:07;1.30;1.00
8953;DHT22;4511;50.890;8.054;2024-01-15T15:29:34;1.20;1.00
8953;DHT22;4511;50.890;8.054;2024-01-15T15:32:02;1.20;1.00
8953;DHT22;4511;50.890;8.054;2024-01-15T15:34:29;1.20;1.00
8953;DHT22;4511;50.890;8.054;2024-01-15T15:36:56;1.20;1.00
8953;DHT22;4511;50.890;8.054;2024-01-15T15:39:23;1.10;1.00
8953;DHT22;4511;50.890;8.054;2024-01-15T15:41:50;1.20;1.00
8953;DHT22;4511;50.890;8.054;2024-01-15T15:44:17;1.10;1.00
8953;DHT22;4511;50.890;8.054;2024-01-15T15:46:44;1.10;1.00
8953;DHT22;4511;50.890;8.054;2024-01-15T15:49:12;1.10;1.00
8953;DHT22;4511;50.890;8.054;2024-01-15T15:51:40;1.00;1.00
8953;DHT22;4511;50.890;8.054;2024-01-15T15:54:07;1.00;99.90
8953;DHT22;4511;50.890;8.054;2024-01-15T15:56:34;1.00;99.90
8953;DHT22;4511;50.890;8.054;2024-01-15T15:59:04;0.90;99.90
8953;DHT22;4511;50.890;8.054;2024-01-15T16:01:30;1.00;99.90
8953;DHT22;4511;50.890;8.054;2024-01-15T16:03:58;1.00;99.90
8953;DHT22;4511;50.890;8.054;2024-01-15T16:06:26;1.10;99.90
8953;DHT22;4511;50.890;8.054;2024-01-15T16:08:53;1.00;99.90
8953;DHT22;4511;50.890;8.054;2024-01-15T16:11:20;1.10;99.90
8953;DHT22;4511;50.890;8.054;2024-01-15T16:13:48;1.10;99.90
8953;DHT22;4511;50.890;8.054;2024-01-15T16:16:15;1.10;99.90
8953;DHT22;4511;50.890;8.054;2024-01-15T16:18:42;1.10;99.90